M I D A S
Marine Information and Data Acquisition System
Tripno 2166 of the Zeeleeuw from 2011-08-18 06:46:36 to 2011-08-18 17:00:00
Back to CruiseResearch ActivitiesStationsMapUnderway DataData graphs

EquipmentUnitsComment
TimeDGPSUTC
LatitudeDGPSDM.mWGS84
LongitudeDGPSDM.mWGS84
TemperatureSBE03/SBE38deg celciusITS90
ConductivitySBE21S/mITS90
SalinitySBE21 Practical Salinity Units
ChlorophylAChelsea fluorimeterg/lCalibrated in Aceton
Missing or incorrect values are displayed as -999
Sea surface data collected by the RV Zeeleeuw from 2011-08-18 06:30:54 to 2011-08-18 13:55:43
Time Latitude Longitude Temperature Conductivity Salinity ChlorophylA
2011-08-18 06:31:59 51°13.635 2°56.018 22.2163 0.015568 0.084023 -3.020363
2011-08-18 06:32:59 51°13.637 2°56 22.1867 0.015568 0.084027 -3.020363
2011-08-18 06:34:02 51°13.663 2°55.905 22.2065 0.015568 0.084029 -3.020363
2011-08-18 06:35:03 51°13.717 2°55.805 22.2296 0.015568 0.084033 -3.020363
2011-08-18 06:36:02 51°13.779 2°55.704 22.251 0.015568 0.084036 -3.020363
2011-08-18 06:37:02 51°13.856 2°55.635 22.2318 0.015568 0.08404 -3.020363
2011-08-18 06:38:02 51°13.922 2°55.638 22.2522 0.015568 0.084043 -3.020363
2011-08-18 06:39:02 51°13.957 2°55.661 22.2662 0.015568 0.084047 -3.020363
2011-08-18 06:39:59 51°13.964 2°55.617 22.0779 0.015568 0.08405 -3.020363
2011-08-18 06:40:59 51°14.045 2°55.509 22.2023 0.015568 0.084054 -3.020363
2011-08-18 06:41:59 51°14.165 2°55.392 22.2239 0.015568 0.084058 -3.020363
2011-08-18 06:42:59 51°14.289 2°55.265 22.2314 0.015568 0.084062 -3.020363
2011-08-18 06:43:59 51°14.415 2°55.14 22.2462 0.015568 0.084065 -3.020363
2011-08-18 06:44:59 51°14.535 2°55.001 22.2404 0.015568 0.084068 -3.020363
2011-08-18 06:45:59 51°14.658 2°54.806 22.1555 0.015568 0.084071 -3.020363
2011-08-18 06:46:59 51°14.823 2°54.61 22.1603 0.015568 0.084074 -3.020363
2011-08-18 06:47:59 51°14.993 2°54.41 22.1509 0.015568 0.084079 -3.020363
2011-08-18 06:48:59 51°15.154 2°54.191 22.1303 0.015466 0.083552 -3.020363
2011-08-18 06:49:59 51°15.322 2°53.981 22.1784 0.015466 0.083556 -3.020363
2011-08-18 06:50:59 51°15.483 2°53.757 22.1812 0.015466 0.08356 -3.020363
2011-08-18 06:51:59 51°15.65 2°53.547 22.1461 0.015466 0.083563 -3.020363
2011-08-18 06:52:59 51°15.828 2°53.366 22.1827 0.015466 0.083568 -3.020363
2011-08-18 06:53:59 51°16.013 2°53.203 22.1506 0.015466 0.083572 -3.020363
2011-08-18 06:54:59 51°16.2 2°53.051 22.1911 0.015466 0.083576 -3.020363
2011-08-18 06:55:59 51°16.381 2°52.882 22.168 0.015466 0.08358 -3.020363
2011-08-18 06:56:59 51°16.569 2°52.738 22.2102 0.015466 0.083584 -3.020363
2011-08-18 06:57:59 51°16.762 2°52.611 22.2148 0.015466 0.083587 -3.020363
2011-08-18 06:58:59 51°16.953 2°52.481 22.2123 0.015466 0.083591 -3.020363
2011-08-18 06:59:59 51°17.139 2°52.33 22.2034 0.015466 0.083596 -3.020363
2011-08-18 07:00:59 51°17.332 2°52.197 22.2344 0.015466 0.0836 -3.020363
2011-08-18 07:01:59 51°17.521 2°52.053 22.2417 0.015466 0.083604 -3.020363
2011-08-18 07:02:59 51°17.709 2°51.904 22.26 0.015466 0.083608 -3.020363
2011-08-18 07:03:59 51°17.9 2°51.768 22.245 0.015466 0.083612 -3.020363
2011-08-18 07:04:59 51°18.089 2°51.621 22.2522 0.015466 0.083615 -3.020363
2011-08-18 07:05:59 51°18.284 2°51.495 22.2766 0.015466 0.083619 -3.020363
2011-08-18 07:06:59 51°18.475 2°51.351 22.2888 0.015466 0.083624 -3.020363
2011-08-18 07:07:59 51°18.666 2°51.202 22.2793 0.015466 0.083627 -3.020363
2011-08-18 07:08:59 51°18.854 2°51.044 22.3051 0.015466 0.083631 -3.020363
2011-08-18 07:09:59 51°19.045 2°50.898 22.301 0.015466 0.083635 -3.020363
2011-08-18 07:10:59 51°19.235 2°50.749 22.3184 0.015466 0.08364 -3.020363
2011-08-18 07:11:59 51°19.425 2°50.595 22.3321 0.015466 0.083643 -3.020363
2011-08-18 07:12:59 51°19.617 2°50.444 22.34 0.015466 0.083647 -3.020363
2011-08-18 07:13:59 51°19.808 2°50.289 22.3405 0.015466 0.083651 -3.020363
2011-08-18 07:14:59 51°19.998 2°50.131 22.3626 0.015363 0.083122 -3.020363
2011-08-18 07:15:59 51°20.187 2°49.978 22.3691 0.015363 0.083125 -3.020363
2011-08-18 07:16:59 51°20.378 2°49.845 22.3947 0.015363 0.083129 -3.020363
2011-08-18 07:17:59 51°20.566 2°49.691 22.3741 0.015363 0.083133 -3.020363
2011-08-18 07:18:59 51°20.759 2°49.543 22.4084 0.015363 0.083136 -3.020363
2011-08-18 07:19:59 51°20.955 2°49.398 22.4276 0.015363 0.08314 -3.020363
2011-08-18 07:20:59 51°21.151 2°49.249 22.4286 0.015363 0.083145 -3.020363
2011-08-18 07:21:59 51°21.346 2°49.101 22.4209 0.015363 0.083148 -3.020363
2011-08-18 07:22:59 51°21.544 2°48.96 22.4278 0.015363 0.083152 -3.020363
2011-08-18 07:23:59 51°21.739 2°48.809 22.4543 0.015363 0.083156 -3.020363
2011-08-18 07:24:59 51°21.937 2°48.663 22.4505 0.015363 0.083159 -3.020363
2011-08-18 07:25:59 51°22.134 2°48.521 22.4831 0.015363 0.083163 -3.020363
2011-08-18 07:26:59 51°22.327 2°48.376 22.4902 0.015363 0.083168 -3.020363
2011-08-18 07:27:59 51°22.522 2°48.239 22.5054 0.015363 0.083172 -3.020363
2011-08-18 07:28:59 51°22.714 2°48.091 22.5018 0.015363 0.083177 -3.020363
2011-08-18 07:29:59 51°22.907 2°47.949 22.5197 0.015363 0.083183 -3.020363
2011-08-18 07:30:59 51°23.102 2°47.811 22.5248 0.015363 0.083189 -3.020363
2011-08-18 07:31:59 51°23.297 2°47.67 22.5382 0.015363 0.083195 -3.020363
2011-08-18 07:32:59 51°23.492 2°47.526 22.5491 0.015363 0.083201 -3.020363
2011-08-18 07:33:59 51°23.685 2°47.384 22.5446 0.015363 0.083207 -3.020363
2011-08-18 07:34:59 51°23.879 2°47.247 22.5742 0.015363 0.083215 -3.020363
2011-08-18 07:35:59 51°24.074 2°47.109 22.5782 0.015363 0.083221 -3.020363
2011-08-18 07:36:59 51°24.265 2°46.961 22.5795 0.015363 0.083227 -3.020363
2011-08-18 07:37:59 51°24.458 2°46.828 22.6087 0.015363 0.083233 -3.020363
2011-08-18 07:38:59 51°24.645 2°46.677 22.6196 0.015363 0.083238 -3.020363
2011-08-18 07:39:59 51°24.837 2°46.534 22.6233 0.015363 0.083246 -3.020363
2011-08-18 07:40:59 51°25.032 2°46.395 22.6335 0.015363 0.083252 -3.020363
2011-08-18 07:41:59 51°25.221 2°46.242 22.6322 0.015363 0.083257 -3.020363
2011-08-18 07:42:59 51°25.418 2°46.105 22.6509 0.015363 0.083261 -3.020363
2011-08-18 07:43:59 51°25.618 2°45.977 22.6612 0.015363 0.083264 -3.020363
2011-08-18 07:44:59 51°25.812 2°45.826 22.6746 0.015363 0.083268 -3.020363
2011-08-18 07:45:59 51°26.007 2°45.68 22.6899 0.015363 0.083272 -3.020363
2011-08-18 07:46:59 51°26.201 2°45.541 22.6795 0.01526 0.082741 -3.020363
2011-08-18 07:47:59 51°26.392 2°45.401 22.7013 0.01526 0.082744 -3.020363
2011-08-18 07:48:59 51°26.581 2°45.251 22.6959 0.01526 0.082745 -3.020363
2011-08-18 07:49:59 51°26.773 2°45.105 22.7312 0.01526 0.082749 -3.020363
2011-08-18 07:50:59 51°26.966 2°44.964 22.7115 0.01526 0.082751 -3.020363
2011-08-18 07:51:59 51°27.156 2°44.812 22.7476 0.01526 0.082753 -3.020363
2011-08-18 07:52:59 51°27.349 2°44.668 22.7433 0.01526 0.082755 -3.020363
2011-08-18 07:53:59 51°27.544 2°44.53 22.7695 0.01526 0.082757 -3.020363
2011-08-18 07:54:59 51°27.738 2°44.395 22.7641 0.01526 0.082759 -3.020363
2011-08-18 07:55:59 51°27.93 2°44.257 22.7803 0.01526 0.082762 -3.020363
2011-08-18 07:56:59 51°28.118 2°44.113 22.7944 0.01526 0.082766 -3.020363
2011-08-18 07:57:59 51°28.31 2°43.978 22.792 0.01526 0.082768 -3.020363
2011-08-18 07:58:59 51°28.501 2°43.836 22.8217 0.01526 0.082768 -3.020363
2011-08-18 07:59:59 51°28.697 2°43.709 22.8304 0.01526 0.082772 -3.020363
2011-08-18 08:00:59 51°28.89 2°43.571 22.8344 0.01526 0.082771 -3.020363
2011-08-18 08:01:59 51°29.082 2°43.435 22.8455 0.01526 0.082774 -3.020363
2011-08-18 08:02:59 51°29.274 2°43.302 22.8414 0.01526 0.082777 -3.020363
2011-08-18 08:03:59 51°29.467 2°43.172 22.8495 0.01526 0.082779 -3.020363
2011-08-18 08:04:59 51°29.666 2°43.11 22.8634 0.01526 0.08278 -3.020363
2011-08-18 08:05:59 51°29.85 2°43.209 22.8789 0.01526 0.082783 -3.020363
2011-08-18 08:06:59 51°30.033 2°43.322 22.8993 0.01526 0.082786 -3.020363
2011-08-18 08:07:59 51°30.218 2°43.428 22.9027 0.01526 0.082789 -3.020363
2011-08-18 08:08:59 51°30.404 2°43.526 22.9078 0.01526 0.08279 -3.020363
2011-08-18 08:09:59 51°30.591 2°43.614 22.9167 0.01526 0.082794 -3.020363
2011-08-18 08:10:59 51°30.78 2°43.697 22.9258 0.01526 0.082795 -3.020363
2011-08-18 08:11:59 51°30.968 2°43.78 22.939 0.01526 0.082797 -3.020363
2011-08-18 08:12:59 51°31.154 2°43.877 22.9496 0.01526 0.0828 -3.020363
2011-08-18 08:13:59 51°31.344 2°43.959 22.9395 0.01526 0.082802 -3.020363
2011-08-18 08:14:59 51°31.53 2°44.053 22.9629 0.01526 0.082804 -3.020363
2011-08-18 08:15:59 51°31.716 2°44.15 22.9765 0.01526 0.082806 -3.020363
2011-08-18 08:16:59 51°31.906 2°44.23 22.986 0.01526 0.082808 -3.020363
2011-08-18 08:17:59 51°32.091 2°44.328 22.9915 0.01526 0.082809 -3.020363
2011-08-18 08:18:59 51°32.279 2°44.409 23.0017 0.01526 0.082813 -3.020363
2011-08-18 08:19:59 51°32.463 2°44.504 23.0083 0.01526 0.082814 -3.020363
2011-08-18 08:20:59 51°32.645 2°44.612 23.0193 0.01526 0.082815 -3.020363
2011-08-18 08:21:59 51°32.828 2°44.709 23.0346 0.01526 0.082818 -3.020363
2011-08-18 08:22:59 51°33.009 2°44.82 23.0491 0.01526 0.08282 -3.020363
2011-08-18 08:23:59 51°33.192 2°44.919 23.0552 0.01526 0.082822 -3.020363
2011-08-18 08:24:59 51°33.37 2°45.036 23.0666 0.01526 0.082825 -3.020363
2011-08-18 08:25:59 51°33.553 2°45.132 23.0589 0.01526 0.082826 -3.020363
2011-08-18 08:26:59 51°33.734 2°45.242 23.0776 0.01526 0.082828 -3.020363
2011-08-18 08:27:59 51°33.914 2°45.351 23.0798 0.01526 0.082831 -3.020363
2011-08-18 08:28:59 51°34.097 2°45.447 23.0915 0.01526 0.082832 -3.020363
2011-08-18 08:29:59 51°34.277 2°45.562 23.1139 0.01526 0.082835 -3.020363
2011-08-18 08:30:59 51°34.46 2°45.659 23.0942 0.01526 0.082836 -3.020363
2011-08-18 08:31:59 51°34.639 2°45.77 23.1254 0.01526 0.082837 -3.020363
2011-08-18 08:32:59 51°34.821 2°45.866 23.11 0.01526 0.082839 -3.020363
2011-08-18 08:33:59 51°35.005 2°45.953 23.1394 0.01526 0.082839 -3.020363
2011-08-18 08:34:59 51°35.184 2°46.064 23.1467 0.01526 0.082842 -3.020363
2011-08-18 08:35:59 51°35.367 2°46.161 23.1599 0.01526 0.082843 -3.020363
2011-08-18 08:36:59 51°35.549 2°46.252 23.1648 0.01526 0.082844 -3.020363
2011-08-18 08:37:59 51°35.727 2°46.36 23.1799 0.01526 0.082845 -3.020363
2011-08-18 08:38:59 51°35.908 2°46.458 23.1674 0.01526 0.082847 -3.020363
2011-08-18 08:39:59 51°36.092 2°46.543 23.1978 0.01526 0.082848 -3.020363
2011-08-18 08:40:59 51°36.281 2°46.607 23.214 0.01526 0.082849 -3.020363
2011-08-18 08:41:59 51°36.468 2°46.678 23.215 0.01526 0.082851 -3.020363
2011-08-18 08:42:59 51°36.655 2°46.75 23.2281 0.01526 0.082851 -3.020363
2011-08-18 08:43:59 51°36.841 2°46.823 23.2086 0.01526 0.082853 -3.020363
2011-08-18 08:44:59 51°37.026 2°46.898 23.2288 0.01526 0.082855 -3.020363
2011-08-18 08:45:59 51°37.214 2°46.963 23.2377 0.01526 0.082855 -3.020363
2011-08-18 08:46:59 51°37.398 2°47.048 23.2623 0.01526 0.082856 -3.020363
2011-08-18 08:47:59 51°37.584 2°47.128 23.2602 0.01526 0.082859 -3.020363
2011-08-18 08:48:59 51°37.766 2°47.217 23.2628 0.01526 0.082859 -3.020363
2011-08-18 08:49:59 51°37.946 2°47.319 23.2845 0.01526 0.08286 -3.020363
2011-08-18 08:50:59 51°38.126 2°47.418 23.2689 0.01526 0.082861 -3.020363
2011-08-18 08:51:59 51°38.3 2°47.537 23.3051 0.015157 0.082328 -3.020363
2011-08-18 08:52:59 51°38.477 2°47.641 23.2917 0.015157 0.082329 -3.020363
2011-08-18 08:53:59 51°38.652 2°47.749 23.3059 0.015157 0.08233 -3.020363
2011-08-18 08:54:59 51°38.83 2°47.85 23.3309 0.015157 0.082333 -3.020363
2011-08-18 08:55:59 51°39.006 2°47.954 23.3356 0.015157 0.082335 -3.020363
2011-08-18 08:56:59 51°39.182 2°48.065 23.3452 0.015157 0.082337 -3.020363
2011-08-18 08:57:59 51°39.359 2°48.167 23.3489 0.015157 0.082339 -3.020363
2011-08-18 08:58:59 51°39.532 2°48.279 23.3657 0.015157 0.082341 -3.020363
2011-08-18 08:59:59 51°39.706 2°48.389 23.3711 0.015157 0.082343 -3.020363
2011-08-18 09:00:59 51°39.883 2°48.483 23.3707 0.015157 0.082345 -3.020363
2011-08-18 09:01:59 51°40.055 2°48.594 23.3848 0.015157 0.082346 -3.020363
2011-08-18 09:02:59 51°40.229 2°48.699 23.397 0.015157 0.082347 -3.020363
2011-08-18 09:03:59 51°40.404 2°48.805 23.4115 0.015157 0.082348 -3.020363
2011-08-18 09:04:59 51°40.578 2°48.909 23.4211 0.015157 0.082351 -3.020363
2011-08-18 09:05:59 51°40.755 2°49.007 23.4237 0.015157 0.082352 -3.020363
2011-08-18 09:06:59 51°40.931 2°49.103 23.4141 0.015157 0.082353 -3.020363
2011-08-18 09:07:59 51°41.11 2°49.123 23.4378 0.015157 0.082354 -3.020363
2011-08-18 09:08:59 51°41.248 2°48.878 23.4504 0.015157 0.082357 -3.020363
2011-08-18 09:09:59 51°41.385 2°48.615 23.4711 0.015157 0.082354 -3.020363
2011-08-18 09:10:59 51°41.524 2°48.36 23.4567 0.015157 0.082358 -3.020363
2011-08-18 09:11:59 51°41.672 2°48.117 23.4767 0.015157 0.082359 -3.020363
2011-08-18 09:12:59 51°41.799 2°47.857 23.5569 0.015157 0.082359 -3.020363
2011-08-18 09:13:59 51°41.723 2°47.542 23.5162 0.015157 0.082365 -3.020363
2011-08-18 09:14:59 51°41.524 2°47.343 23.533 0.015157 0.082366 -3.020363
2011-08-18 09:15:59 51°41.305 2°47.228 23.4657 0.015157 0.082367 -3.020363
2011-08-18 09:16:59 51°41.081 2°47.121 23.5128 0.015157 0.082369 -3.020363
2011-08-18 09:17:59 51°40.857 2°47.019 23.5532 0.015157 0.082371 -3.020363
2011-08-18 09:18:59 51°40.632 2°46.912 23.5132 0.015157 0.082371 -3.020363
2011-08-18 09:19:59 51°40.409 2°46.798 23.5786 0.015157 0.082371 -3.020363
2011-08-18 09:20:59 51°40.186 2°46.71 23.563 0.015157 0.082375 -3.020363
2011-08-18 09:21:59 51°39.955 2°46.644 23.5979 0.015157 0.082377 -3.020363
2011-08-18 09:22:59 51°39.727 2°46.564 23.5836 0.015157 0.082377 -3.020363
2011-08-18 09:23:59 51°39.501 2°46.486 23.5833 0.015157 0.082379 -3.020363
2011-08-18 09:24:59 51°39.276 2°46.386 23.6205 0.015157 0.082381 -3.020363
2011-08-18 09:25:59 51°39.049 2°46.281 23.6016 0.015157 0.082383 -3.020363
2011-08-18 09:26:59 51°38.821 2°46.189 23.6121 0.015157 0.082385 -3.020363
2011-08-18 09:27:59 51°38.592 2°46.096 23.6318 0.015157 0.082388 -3.020363
2011-08-18 09:28:59 51°38.368 2°46.001 23.6182 0.015157 0.08239 -3.020363
2011-08-18 09:29:59 51°38.141 2°45.898 23.67 0.015054 0.081858 -3.020363
2011-08-18 09:30:59 51°37.915 2°45.799 23.6562 0.015054 0.08186 -3.020363
2011-08-18 09:31:59 51°37.688 2°45.701 23.6779 0.015054 0.081861 -3.020363
2011-08-18 09:32:59 51°37.465 2°45.588 23.6394 0.015054 0.081864 -3.020363
2011-08-18 09:33:59 51°37.24 2°45.471 23.6406 0.015054 0.081859 -3.020363
2011-08-18 09:34:59 51°37.015 2°45.345 23.7075 0.015054 0.081869 -3.020363
2011-08-18 09:35:59 51°36.791 2°45.226 23.6844 0.015054 0.081871 -3.020363
2011-08-18 09:36:59 51°36.568 2°45.107 23.7048 0.015054 0.081872 -3.020363
2011-08-18 09:37:59 51°36.347 2°44.981 23.6719 0.015054 0.081867 -3.020363
2011-08-18 09:38:59 51°36.125 2°44.859 23.6844 0.015054 0.081876 -3.020363
2011-08-18 09:39:59 51°35.906 2°44.736 23.7304 0.015054 0.081878 -3.020363
2011-08-18 09:40:59 51°35.685 2°44.62 23.7361 0.015054 0.081879 -3.020363
2011-08-18 09:41:59 51°35.467 2°44.498 23.7832 0.015054 0.081872 -3.020363
2011-08-18 09:42:59 51°35.245 2°44.377 23.6813 0.015054 0.081882 -3.020363
2011-08-18 09:43:59 51°35.025 2°44.25 23.7411 0.015054 0.081885 -3.020363
2011-08-18 09:44:59 51°34.803 2°44.126 23.761 0.015054 0.081888 -3.020363
2011-08-18 09:45:59 51°34.581 2°44.007 23.749 0.015054 0.08189 -3.020363
2011-08-18 09:46:59 51°34.359 2°43.891 23.7557 0.015054 0.081891 -3.020363
2011-08-18 09:47:59 51°34.141 2°43.764 23.7686 0.015054 0.081892 -3.020363
2011-08-18 09:48:59 51°33.92 2°43.645 23.7964 0.015054 0.081895 -3.020363
2011-08-18 09:49:59 51°33.699 2°43.53 23.7667 0.015054 0.081896 -3.020363
2011-08-18 09:50:59 51°33.487 2°43.382 23.781 0.015054 0.081897 -3.020363
2011-08-18 09:51:59 51°33.318 2°43.129 23.7927 0.015054 0.081895 -3.020363
2011-08-18 09:52:59 51°33.186 2°42.811 23.7967 0.015054 0.0819 -3.020363
2011-08-18 09:53:59 51°33.056 2°42.489 23.7874 0.015054 0.081901 -3.020363
2011-08-18 09:54:59 51°32.941 2°42.154 23.8018 0.015054 0.081902 -3.020363
2011-08-18 09:55:59 51°32.816 2°41.824 23.8159 0.015054 0.081903 -3.020363
2011-08-18 09:56:59 51°32.696 2°41.495 23.8035 0.015054 0.081904 -3.020363
2011-08-18 09:57:59 51°32.581 2°41.163 23.6272 0.015054 0.081904 -3.020363
2011-08-18 09:58:59 51°32.471 2°40.832 23.6799 0.015054 0.081904 -3.020363
2011-08-18 09:59:59 51°32.522 2°40.564 23.7209 0.015054 0.081901 -3.020363
2011-08-18 10:00:59 51°32.681 2°40.606 23.6723 0.015054 0.081903 -3.020363
2011-08-18 10:01:59 51°32.85 2°40.688 23.6426 0.015054 0.081904 -3.020363
2011-08-18 10:02:59 51°33.014 2°40.78 23.6418 0.015054 0.081904 -3.020363
2011-08-18 10:03:59 51°33.181 2°40.863 23.6845 0.015054 0.081906 -3.020363
2011-08-18 10:04:59 51°33.349 2°40.941 23.6764 0.015054 0.081906 -3.020363
2011-08-18 10:05:59 51°33.513 2°41.034 23.6967 0.015054 0.081906 -3.020363
2011-08-18 10:06:59 51°33.679 2°41.117 23.6916 0.015054 0.081907 -3.020363
2011-08-18 10:07:59 51°33.846 2°41.194 23.7122 0.015054 0.081908 -3.020363
2011-08-18 10:08:59 51°34.011 2°41.282 23.7046 0.015054 0.081908 -3.020363
2011-08-18 10:09:59 51°34.177 2°41.361 23.6996 0.014952 0.081373 -3.020363
2011-08-18 10:10:59 51°34.341 2°41.45 23.7144 0.014952 0.081374 -3.020363
2011-08-18 10:11:59 51°34.504 2°41.538 23.7104 0.014952 0.081374 -3.020363
2011-08-18 10:12:59 51°34.669 2°41.624 23.7207 0.014952 0.081375 -3.020363
2011-08-18 10:13:59 51°34.834 2°41.712 23.7343 0.014952 0.081377 -3.020363
2011-08-18 10:14:59 51°35.001 2°41.791 23.7364 0.014952 0.081378 -3.020363
2011-08-18 10:15:59 51°35.164 2°41.884 23.7374 0.014952 0.081378 -3.020363
2011-08-18 10:16:59 51°35.33 2°41.97 23.7398 0.014952 0.081379 -3.020363
2011-08-18 10:17:59 51°35.494 2°42.061 23.7562 0.014952 0.08138 -3.020363
2011-08-18 10:18:59 51°35.663 2°42.141 23.7511 0.014952 0.08138 -3.020363
2011-08-18 10:19:59 51°35.828 2°42.237 23.7616 0.014952 0.081384 -3.020363
2011-08-18 10:20:59 51°35.997 2°42.318 23.7615 0.014952 0.081382 -3.020363
2011-08-18 10:21:59 51°36.166 2°42.408 23.767 0.014952 0.081384 -3.020363
2011-08-18 10:22:59 51°36.333 2°42.5 23.784 0.014952 0.081384 -3.020363
2011-08-18 10:23:59 51°36.502 2°42.583 23.7826 0.014952 0.081385 -3.020363
2011-08-18 10:24:59 51°36.668 2°42.678 23.7805 0.014952 0.081386 -3.020363
2011-08-18 10:25:59 51°36.838 2°42.758 23.7858 0.014952 0.081387 -3.020363
2011-08-18 10:26:59 51°37.004 2°42.854 23.7891 0.014952 0.081388 -3.020363
2011-08-18 10:27:59 51°37.175 2°42.936 23.8048 0.014952 0.081388 -3.020363
2011-08-18 10:28:59 51°37.343 2°43.026 23.803 0.014952 0.08139 -3.020363
2011-08-18 10:29:59 51°37.51 2°43.119 23.8043 0.014952 0.081391 -3.020363
2011-08-18 10:30:59 51°37.682 2°43.195 23.813 0.014952 0.081392 -3.020363
2011-08-18 10:31:59 51°37.851 2°43.275 23.82 0.014952 0.081392 -3.020363
2011-08-18 10:32:59 51°38.019 2°43.359 23.826 0.014952 0.081393 -3.020363
2011-08-18 10:33:59 51°38.189 2°43.443 23.8254 0.014952 0.081394 -3.020363
2011-08-18 10:34:59 51°38.356 2°43.532 23.8336 0.014952 0.081394 -3.020363
2011-08-18 10:35:59 51°38.527 2°43.61 23.8363 0.014952 0.081395 -3.020363
2011-08-18 10:36:59 51°38.691 2°43.715 23.8395 0.014952 0.081397 -3.020363
2011-08-18 10:37:59 51°38.857 2°43.811 23.8454 0.014952 0.081397 -3.020363
2011-08-18 10:38:59 51°39.024 2°43.901 23.8512 0.014952 0.081398 -3.020363
2011-08-18 10:39:59 51°39.188 2°44.003 23.8566 0.014952 0.081399 -3.020363
2011-08-18 10:40:59 51°39.353 2°44.095 23.8612 0.014952 0.081401 -3.020363
2011-08-18 10:41:59 51°39.518 2°44.196 23.8655 0.014952 0.081401 -3.020363
2011-08-18 10:42:59 51°39.686 2°44.28 23.8712 0.014952 0.081401 -3.020363
2011-08-18 10:43:59 51°39.853 2°44.372 23.8763 0.014952 0.081403 -3.020363
2011-08-18 10:44:59 51°40.017 2°44.471 23.8802 0.014952 0.081404 -3.020363
2011-08-18 10:45:59 51°40.185 2°44.554 23.8853 0.014952 0.081405 -3.020363
2011-08-18 10:46:59 51°40.354 2°44.636 23.8913 0.014952 0.081406 -3.020363
2011-08-18 10:47:59 51°40.521 2°44.729 23.8954 0.014952 0.081407 -3.020363
2011-08-18 10:48:59 51°40.689 2°44.814 23.9002 0.014952 0.081407 -3.020363
2011-08-18 10:49:59 51°40.858 2°44.901 23.905 0.014952 0.081409 -3.020363
2011-08-18 10:50:59 51°41.026 2°44.991 23.9106 0.014952 0.08141 -3.020363
2011-08-18 10:51:59 51°41.195 2°45.077 23.9149 0.014952 0.081411 -3.020363
2011-08-18 10:52:59 51°41.366 2°45.157 23.9198 0.014952 0.081412 -3.020363
2011-08-18 10:53:59 51°41.533 2°45.243 23.9255 0.014952 0.081412 -3.020363
2011-08-18 10:54:59 51°41.702 2°45.332 23.9297 0.014952 0.081413 -3.020363
2011-08-18 10:55:59 51°41.869 2°45.429 23.9361 0.014952 0.081413 -3.020363
2011-08-18 10:56:59 51°42.04 2°45.515 23.9415 0.014952 0.081413 -3.020363
2011-08-18 10:57:59 51°42.206 2°45.599 23.9459 0.014849 0.080879 -3.020363
2011-08-18 10:58:59 51°42.376 2°45.693 23.9522 0.014849 0.080879 -3.020363
2011-08-18 10:59:59 51°42.549 2°45.771 23.9566 0.014849 0.080881 -3.020363
2011-08-18 11:00:59 51°42.718 2°45.862 23.9627 0.014849 0.080881 -3.020363
2011-08-18 11:01:59 51°42.887 2°45.964 23.967 0.014849 0.080881 -3.020363
2011-08-18 11:02:59 51°43.059 2°46.034 23.9787 0.014849 0.080883 -3.020363
2011-08-18 11:03:59 51°43.202 2°45.841 23.9721 0.014849 0.080882 -3.020363
2011-08-18 11:04:59 51°43.35 2°45.625 23.9734 0.014849 0.080883 -3.020363
2011-08-18 11:05:59 51°43.487 2°45.394 23.9796 0.014849 0.080883 -3.020363
2011-08-18 11:06:59 51°43.54 2°45.059 23.9827 0.014849 0.080884 -3.020363
2011-08-18 11:07:59 51°43.576 2°44.713 23.9868 0.014849 0.080884 -3.020363
2011-08-18 11:08:59 51°43.592 2°44.361 23.9904 0.014849 0.080884 -3.020363
2011-08-18 11:09:59 51°43.441 2°44.153 23.9887 0.014849 0.080888 -3.020363
2011-08-18 11:10:59 51°43.221 2°44.047 23.9945 0.014849 0.080885 -3.020363
2011-08-18 11:11:59 51°43.011 2°43.873 23.9988 0.014849 0.080886 -3.020363
2011-08-18 11:12:59 51°42.789 2°43.728 24.0054 0.014849 0.080888 -3.020363
2011-08-18 11:13:59 51°42.567 2°43.597 24.01 0.014849 0.080888 -3.020363
2011-08-18 11:14:59 51°42.348 2°43.456 24.0159 0.014849 0.080889 -3.020363
2011-08-18 11:15:59 51°42.127 2°43.311 24.0222 0.014849 0.080889 -3.020363
2011-08-18 11:16:59 51°41.902 2°43.181 24.0211 0.014849 0.080889 -3.020363
2011-08-18 11:17:59 51°41.682 2°43.051 24.0316 0.014849 0.08089 -3.020363
2011-08-18 11:18:59 51°41.463 2°42.912 24.0415 0.014849 0.080891 -3.020363
2011-08-18 11:19:59 51°41.241 2°42.772 24.0456 0.014849 0.080891 -3.020363
2011-08-18 11:20:59 51°41.017 2°42.638 24.0451 0.014849 0.080892 -3.020363
2011-08-18 11:21:59 51°40.794 2°42.511 24.0596 0.014849 0.080885 -3.020363
2011-08-18 11:22:59 51°40.572 2°42.384 24.0623 0.014849 0.080892 -3.020363
2011-08-18 11:23:59 51°40.352 2°42.256 24.0689 0.014849 0.080895 -3.020363
2011-08-18 11:24:59 51°40.129 2°42.135 24.0761 0.014849 0.080896 -3.020363
2011-08-18 11:25:59 51°39.905 2°42.023 24.0772 0.014849 0.080896 -3.020363
2011-08-18 11:26:59 51°39.678 2°41.913 24.0945 0.014849 0.080897 -3.020363
2011-08-18 11:27:59 51°39.454 2°41.808 24.0934 0.014849 0.080897 -3.020363
2011-08-18 11:28:59 51°39.23 2°41.699 24.0876 0.014849 0.080898 -3.020363
2011-08-18 11:29:59 51°39.007 2°41.587 24.0881 0.014849 0.080899 -3.020363
2011-08-18 11:30:59 51°38.782 2°41.465 24.1005 0.014849 0.080899 -3.020363
2011-08-18 11:31:59 51°38.556 2°41.36 24.112 0.014849 0.0809 -3.020363
2011-08-18 11:32:59 51°38.33 2°41.253 24.117 0.014849 0.0809 -3.020363
2011-08-18 11:33:59 51°38.106 2°41.144 24.1124 0.014849 0.080902 -3.020363
2011-08-18 11:34:59 51°37.885 2°41.023 24.1251 0.014849 0.080902 -3.020363
2011-08-18 11:35:59 51°37.664 2°40.903 24.1518 0.014849 0.080902 -3.020363
2011-08-18 11:36:59 51°37.444 2°40.794 24.1378 0.014849 0.080903 -3.020363
2011-08-18 11:37:59 51°37.221 2°40.685 24.1291 0.014849 0.080904 -3.020363
2011-08-18 11:38:59 51°37.002 2°40.566 24.1403 0.014849 0.080905 -3.020363
2011-08-18 11:39:59 51°36.782 2°40.45 24.1387 0.014849 0.080905 -3.020363
2011-08-18 11:40:59 51°36.56 2°40.34 24.1379 0.014849 0.080906 -3.020363
2011-08-18 11:41:59 51°36.341 2°40.228 24.155 0.014849 0.080908 -3.020363
2011-08-18 11:42:59 51°36.121 2°40.123 24.17 0.014849 0.080905 -3.020363
2011-08-18 11:43:59 51°35.899 2°40.019 24.176 0.014849 0.080909 -3.020363
2011-08-18 11:44:59 51°35.678 2°39.921 24.1764 0.014849 0.080906 -3.020363
2011-08-18 11:45:59 51°35.461 2°39.808 24.182 0.014849 0.08091 -3.020363
2011-08-18 11:46:59 51°35.244 2°39.703 24.1967 0.014849 0.080906 -3.020363
2011-08-18 11:47:59 51°35.024 2°39.606 24.1959 0.014849 0.080912 -3.020363
2011-08-18 11:48:59 51°34.804 2°39.506 24.1819 0.014746 0.080378 -3.020363
2011-08-18 11:49:59 51°34.587 2°39.397 24.2058 0.014746 0.080378 -3.020363
2011-08-18 11:50:59 51°34.37 2°39.283 24.2073 0.014746 0.080379 -3.020363
2011-08-18 11:51:59 51°34.156 2°39.167 24.1963 0.014746 0.080379 -3.020363
2011-08-18 11:52:59 51°33.938 2°39.055 24.2045 0.014746 0.080379 -3.020363
2011-08-18 11:53:59 51°33.719 2°38.945 24.2199 0.014746 0.080381 -3.020363
2011-08-18 11:54:59 51°33.499 2°38.832 24.2179 0.014746 0.080382 -3.020363
2011-08-18 11:55:59 51°33.277 2°38.712 24.2329 0.014746 0.080383 -3.020363
2011-08-18 11:56:59 51°33.056 2°38.598 24.2366 0.014746 0.080383 -3.020363
2011-08-18 11:57:59 51°32.838 2°38.482 24.2307 0.014746 0.080383 -3.020363
2011-08-18 11:58:59 51°32.617 2°38.373 24.2346 0.014746 0.080384 -3.020363
2011-08-18 11:59:59 51°32.402 2°38.259 24.2273 0.014746 0.080385 -3.020363
2011-08-18 12:00:59 51°32.184 2°38.133 24.2421 0.014746 0.080385 -3.020363
2011-08-18 12:01:59 51°31.964 2°38.016 24.2455 0.014746 0.080384 -3.020363
2011-08-18 12:02:59 51°31.747 2°37.9 24.2339 0.014746 0.080388 -3.020363
2011-08-18 12:03:59 51°31.53 2°37.774 24.2704 0.014746 0.080386 -3.020363
2011-08-18 12:04:59 51°31.312 2°37.652 24.2538 0.014746 0.080388 -3.020363
2011-08-18 12:05:59 51°31.092 2°37.525 24.2758 0.014746 0.080389 -3.020363
2011-08-18 12:06:59 51°30.872 2°37.412 24.2875 0.014746 0.080391 -3.020363
2011-08-18 12:07:59 51°30.653 2°37.298 24.264 0.014746 0.080391 -3.020363
2011-08-18 12:08:59 51°30.437 2°37.184 24.276 0.014746 0.080392 -3.020363
2011-08-18 12:09:59 51°30.216 2°37.068 24.2966 0.014746 0.080392 -3.020363
2011-08-18 12:10:59 51°29.995 2°36.961 24.2934 0.014746 0.080392 -3.020363
2011-08-18 12:11:59 51°29.775 2°36.843 24.2977 0.014746 0.080393 -3.020363
2011-08-18 12:12:59 51°29.555 2°36.738 24.3142 0.014746 0.080393 -3.020363
2011-08-18 12:13:59 51°29.334 2°36.632 24.3049 0.014746 0.080393 -3.020363
2011-08-18 12:14:59 51°29.117 2°36.625 24.3079 0.014746 0.080396 -3.020363
2011-08-18 12:15:59 51°28.931 2°36.793 24.3117 0.014746 0.080397 -3.020363
2011-08-18 12:16:59 51°28.762 2°37.002 24.3136 0.014746 0.080398 -3.020363
2011-08-18 12:17:59 51°28.6 2°37.224 24.3239 0.014746 0.080399 -3.020363
2011-08-18 12:18:59 51°28.437 2°37.445 24.3469 0.014746 0.080404 -3.020363
2011-08-18 12:19:59 51°28.273 2°37.664 24.3359 0.014746 0.080407 -3.020363
2011-08-18 12:20:59 51°28.11 2°37.884 24.3437 0.014746 0.080413 -3.020363
2011-08-18 12:21:59 51°27.945 2°38.1 24.3534 0.014746 0.080419 -3.020363
2011-08-18 12:22:59 51°27.782 2°38.32 24.3437 0.014746 0.080425 -3.020363
2011-08-18 12:23:59 51°27.618 2°38.541 24.3614 0.014746 0.080432 -3.020363
2011-08-18 12:24:59 51°27.451 2°38.756 24.3538 0.014746 0.080439 -3.020363
2011-08-18 12:25:59 51°27.285 2°38.974 24.3571 0.014746 0.080446 -3.020363
2011-08-18 12:26:59 51°27.12 2°39.192 24.3629 0.014746 0.080452 -3.020363
2011-08-18 12:27:59 51°26.953 2°39.407 24.3767 0.014746 0.080459 -3.020363
2011-08-18 12:28:59 51°26.791 2°39.627 24.3584 0.014746 0.080466 -3.020363
2011-08-18 12:29:59 51°26.606 2°39.801 24.3771 0.014643 0.079937 -3.020363
2011-08-18 12:30:59 51°26.402 2°39.936 24.3842 0.014643 0.079944 -3.020363
2011-08-18 12:31:59 51°26.204 2°40.082 24.372 0.014643 0.07995 -3.020363
2011-08-18 12:32:59 51°26.005 2°40.215 24.3972 0.014643 0.079956 -3.020363
2011-08-18 12:33:59 51°25.835 2°40.405 24.3997 0.014643 0.079961 -3.020363
2011-08-18 12:34:59 51°25.676 2°40.611 24.4053 0.014643 0.079966 -3.020363
2011-08-18 12:35:59 51°25.523 2°40.832 24.4046 0.014643 0.079969 -3.020363
2011-08-18 12:36:59 51°25.37 2°41.056 24.4075 0.014643 0.079975 -3.020363
2011-08-18 12:37:59 51°25.218 2°41.283 24.4146 0.014643 0.07998 -3.020363
2011-08-18 12:38:59 51°25.065 2°41.51 24.4093 0.014643 0.079986 -3.020363
2011-08-18 12:39:59 51°24.912 2°41.738 24.4114 0.014643 0.079991 -3.020363
2011-08-18 12:40:59 51°24.771 2°41.983 24.4164 0.014643 0.079996 -3.020363
2011-08-18 12:41:59 51°24.63 2°42.23 24.4243 0.014643 0.080001 -3.020363
2011-08-18 12:42:59 51°24.485 2°42.472 24.4304 0.014643 0.080007 -3.020363
2011-08-18 12:43:59 51°24.342 2°42.716 24.4423 0.014643 0.080012 -3.020363
2011-08-18 12:44:59 51°24.204 2°42.968 24.4412 0.014643 0.080017 -3.020363
2011-08-18 12:45:59 51°24.054 2°43.203 24.4392 0.014643 0.080022 -3.020363
2011-08-18 12:46:59 51°23.901 2°43.433 24.4604 0.014643 0.080028 -3.020363
2011-08-18 12:47:59 51°23.741 2°43.656 24.4766 0.014643 0.080032 -3.020363
2011-08-18 12:48:59 51°23.587 2°43.888 24.4497 0.014643 0.080036 -3.020363
2011-08-18 12:49:59 51°23.424 2°44.095 24.4762 0.014643 0.08004 -3.020363
2011-08-18 12:50:59 51°23.271 2°44.317 24.4893 0.014643 0.080044 -3.020363
2011-08-18 12:51:59 51°23.116 2°44.541 24.4748 0.014643 0.080048 -3.020363
2011-08-18 12:52:59 51°22.953 2°44.759 24.4793 0.014643 0.080052 -3.020363
2011-08-18 12:53:59 51°22.796 2°44.985 24.486 0.014643 0.080055 -3.020363
2011-08-18 12:54:59 51°22.633 2°45.204 24.4883 0.014643 0.080058 -3.020363
2011-08-18 12:55:59 51°22.477 2°45.432 24.5028 0.014643 0.080062 -3.020363
2011-08-18 12:56:59 51°22.319 2°45.661 24.5151 0.014643 0.080066 -3.020363
2011-08-18 12:57:59 51°22.158 2°45.888 24.5049 0.014643 0.080069 -3.020363
2011-08-18 12:58:59 51°21.992 2°46.111 24.5025 0.014643 0.080074 -3.020363
2011-08-18 12:59:59 51°21.827 2°46.331 24.5149 0.014643 0.080078 -3.020363
2011-08-18 13:00:59 51°21.66 2°46.546 24.5086 0.014643 0.080082 -3.020363
2011-08-18 13:01:59 51°21.493 2°46.764 24.514 0.014643 0.080087 -3.020363
2011-08-18 13:02:59 51°21.329 2°46.986 24.5238 0.014643 0.08009 -3.020363
2011-08-18 13:03:59 51°21.162 2°47.2 24.5329 0.014643 0.080094 -3.020363
2011-08-18 13:04:59 51°20.992 2°47.411 24.5408 0.014643 0.080099 -3.020363
2011-08-18 13:05:59 51°20.825 2°47.626 24.551 0.014643 0.080102 -3.020363
2011-08-18 13:06:59 51°20.658 2°47.843 24.5363 0.01454 0.07957 -3.020363
2011-08-18 13:07:59 51°20.486 2°48.047 24.5447 0.01454 0.079574 -3.020363
2011-08-18 13:08:59 51°20.325 2°48.27 24.5643 0.01454 0.079578 -3.020363
2011-08-18 13:09:59 51°20.154 2°48.477 24.5573 0.01454 0.079582 -3.020363
2011-08-18 13:10:59 51°19.988 2°48.689 24.5647 0.01454 0.079586 -3.020363
2011-08-18 13:11:59 51°19.824 2°48.899 24.5699 0.01454 0.079589 -3.020363
2011-08-18 13:12:59 51°19.658 2°49.109 24.5726 0.01454 0.079593 -3.020363
2011-08-18 13:13:59 51°19.492 2°49.319 24.5828 0.01454 0.079597 -3.020363
2011-08-18 13:14:59 51°19.332 2°49.544 24.5746 0.01454 0.0796 -3.020363
2011-08-18 13:15:59 51°19.175 2°49.771 24.6 0.01454 0.079604 -3.020363
2011-08-18 13:16:59 51°19.02 2°50.006 24.5856 0.01454 0.079607 -3.020363
2011-08-18 13:17:59 51°18.864 2°50.242 24.5851 0.01454 0.07961 -3.020363
2011-08-18 13:18:59 51°18.709 2°50.477 24.5951 0.01454 0.079612 -3.020363
2011-08-18 13:19:59 51°18.551 2°50.71 24.6073 0.01454 0.079616 -3.020363
2011-08-18 13:20:59 51°18.383 2°50.92 24.601 0.01454 0.079619 -3.020363
2011-08-18 13:21:59 51°18.217 2°51.138 24.621 0.01454 0.079622 -3.020363
2011-08-18 13:22:59 51°18.052 2°51.357 24.6192 0.01454 0.079625 -3.020363
2011-08-18 13:23:59 51°17.885 2°51.57 24.6136 0.01454 0.079626 -3.020363
2011-08-18 13:24:59 51°17.718 2°51.783 24.6005 0.01454 0.07963 -3.020363
2011-08-18 13:25:59 51°17.545 2°51.978 24.6455 0.01454 0.079632 -3.020363
2011-08-18 13:26:59 51°17.363 2°52.155 24.6548 0.01454 0.079634 -3.020363
2011-08-18 13:27:59 51°17.182 2°52.338 24.6452 0.01454 0.079637 -3.020363
2011-08-18 13:28:59 51°16.998 2°52.502 24.6458 0.01454 0.079639 -3.020363
2011-08-18 13:29:59 51°16.8 2°52.626 24.6522 0.01454 0.07964 -3.020363
2011-08-18 13:30:59 51°16.61 2°52.773 24.6684 0.01454 0.079643 -3.020363
2011-08-18 13:31:59 51°16.42 2°52.923 24.6638 0.01454 0.079643 -3.020363
2011-08-18 13:32:59 51°16.233 2°53.075 24.7119 0.01454 0.079644 -3.020363
2011-08-18 13:33:59 51°16.054 2°53.247 24.6878 0.01454 0.079644 -3.020363
2011-08-18 13:34:59 51°15.871 2°53.41 24.6758 0.01454 0.079646 -3.020363
2011-08-18 13:35:59 51°15.7 2°53.606 24.6905 0.01454 0.079647 -3.020363
2011-08-18 13:36:59 51°15.545 2°53.837 24.6897 0.01454 0.079647 -3.020363
2011-08-18 13:37:59 51°15.376 2°54.038 24.7025 0.01454 0.079648 -3.020363
2011-08-18 13:38:59 51°15.204 2°54.235 24.7191 0.01454 0.07965 -3.020363
2011-08-18 13:39:59 51°15.04 2°54.442 24.7053 0.01454 0.07965 -3.020363
2011-08-18 13:40:59 51°14.876 2°54.642 24.703 0.01454 0.07965 -3.020363
2011-08-18 13:41:59 51°14.715 2°54.848 24.7232 0.01454 0.07965 -3.020363
2011-08-18 13:42:59 51°14.546 2°55.052 24.7104 0.01454 0.07965 -3.020363
2011-08-18 13:43:59 51°14.363 2°55.223 24.73 0.01454 0.07965 -3.020363
2011-08-18 13:44:59 51°14.222 2°55.339 24.7498 0.014438 0.079112 -3.020363
2011-08-18 13:45:59 51°14.115 2°55.425 24.7535 0.014438 0.079112 -3.020363
2011-08-18 13:47:00 51°14.021 2°55.493 24.7601 0.014438 0.079111 -3.020363
2011-08-18 13:48:00 51°13.934 2°55.559 24.7666 0.014438 0.079109 -3.020363
2011-08-18 13:49:00 51°13.851 2°55.623 24.7721 0.014438 0.079106 -3.020363
2011-08-18 13:49:59 51°13.779 2°55.68 24.7796 0.014438 0.079103 -3.020363
2011-08-18 13:50:59 51°13.72 2°55.747 24.7959 0.014438 0.0791 -3.020363
2011-08-18 13:51:59 51°13.68 2°55.836 24.7929 0.014438 0.079097 -3.020363
2011-08-18 13:52:59 51°13.651 2°55.932 24.7986 0.014438 0.079094 -3.020363
2011-08-18 13:53:59 51°13.64 2°56.004 24.7955 0.014438 0.07909 -3.020363
2011-08-18 13:54:59 51°13.637 2°56.014 24.8205 0.014438 0.079086 -3.020363